Terminal Aerodrome Forecast
Issued by NWS Wilmington, OH

Current Version | Previous Version | Text Only | Print | Product List | Glossary Off
Versions: 1 2 3 4 5 6 7 8 9 10 11 12 13 14

000
FTUS41 KILN 231127
TAFILN
TAF
KILN 231127Z 2312/2412 09009KT P6SM SCT150
     FM231600 12010KT P6SM SCT100
     FM232000 14010KT P6SM BKN090
     FM240500 18009KT P6SM BKN070 WS020/21045KT
     FM241100 21014G22KT P6SM BKN150 WS020/21045KT=

USA.gov is the U.S. government's official web portal to all federal, state and local government web resources and services.